Time,TemperatureF,DewpointF,PressureIn,WindDirection,WindDirectionDegrees,WindSpeedMPH,WindSpeedGustMPH,Humidity,HourlyPrecipIn,Conditions,Clouds,dailyrainin,SoftwareType,DateUTC
2013-01-08 00:02:00,28.4,21.2,30.31,SE,145,0.0,2.0,74,0.00,,---,0.00,VWS V13.01,2013-01-08 08:02:00,
2013-01-08 00:32:00,28.7,21.1,30.30,SE,145,0.0,1.0,73,0.00,,---,0.00,VWS V13.01,2013-01-08 08:32:00,
2013-01-08 01:02:00,28.1,20.2,30.30,SE,145,0.0,0.0,72,0.00,,---,0.00,VWS V13.01,2013-01-08 09:02:00,
2013-01-08 01:32:00,27.8,20.6,30.29,SE,145,0.0,0.0,74,0.00,,---,0.00,VWS V13.01,2013-01-08 09:32:00,
2013-01-08 02:02:00,27.5,20.3,30.30,SE,145,0.0,0.0,74,0.00,,---,0.00,VWS V13.01,2013-01-08 10:02:00,
2013-01-08 02:32:00,27.6,19.8,30.29,SE,145,0.0,0.0,72,0.00,,---,0.00,VWS V13.01,2013-01-08 10:32:00,
2013-01-08 03:02:00,28.2,19.7,30.30,SE,145,0.0,0.0,70,0.00,,---,0.00,VWS V13.01,2013-01-08 11:02:00,
2013-01-08 03:32:00,29.8,18.8,30.28,SE,145,0.0,3.0,63,0.00,,---,0.00,VWS V13.01,2013-01-08 11:32:00,
2013-01-08 04:02:00,30.4,19.7,30.28,SE,145,0.0,4.0,64,0.00,,---,0.00,VWS V13.01,2013-01-08 12:02:00,
2013-01-08 04:32:00,31.5,19.2,30.32,SE,145,0.0,2.0,60,0.00,,---,0.00,VWS V13.01,2013-01-08 12:32:00,
2013-01-08 05:02:00,35.0,18.2,30.30,SSE,162,2.0,6.0,50,0.00,,---,0.00,VWS V13.01,2013-01-08 13:02:00,
2013-01-08 05:32:00,33.8,20.2,30.34,SSE,162,0.0,4.0,57,0.00,,---,0.00,VWS V13.01,2013-01-08 13:32:00,
2013-01-08 06:02:00,30.9,19.8,30.37,SSE,162,0.0,2.0,63,0.00,,---,0.00,VWS V13.01,2013-01-08 14:02:00,
2013-01-08 06:32:00,32.1,20.2,30.36,SSE,162,0.0,3.0,61,0.00,,---,0.00,VWS V13.01,2013-01-08 14:32:00,
2013-01-08 07:02:00,37.0,17.6,30.35,SSE,164,3.0,6.0,45,0.00,,---,0.00,VWS V13.01,2013-01-08 15:02:00,
2013-01-08 07:32:00,36.9,19.1,30.33,SSE,163,1.0,5.0,48,0.00,,---,0.00,VWS V13.01,2013-01-08 15:32:00,
2013-01-08 08:02:00,46.8,18.5,30.30,East,94,2.0,5.0,32,0.00,,---,0.00,VWS V13.01,2013-01-08 16:02:00,
2013-01-08 08:32:00,51.9,23.0,30.28,East,96,0.0,4.0,32,0.00,,---,0.00,VWS V13.01,2013-01-08 16:32:00,
2013-01-08 09:02:00,54.2,26.5,30.29,ESE,103,1.0,13.0,34,0.00,,---,0.00,VWS V13.01,2013-01-08 17:02:00,
2013-01-08 09:32:00,55.6,27.7,30.30,ESE,122,7.0,14.0,34,0.00,,---,0.00,VWS V13.01,2013-01-08 17:32:00,
2013-01-08 10:02:00,55.7,29.2,30.30,East,98,3.0,13.0,36,0.00,,---,0.00,VWS V13.01,2013-01-08 18:02:00,
2013-01-08 10:32:00,56.2,28.9,30.31,SE,129,1.0,12.0,35,0.00,,---,0.00,VWS V13.01,2013-01-08 18:32:00,
2013-01-08 11:02:00,57.8,28.2,30.28,ESE,104,4.0,12.0,32,0.00,,---,0.00,VWS V13.01,2013-01-08 19:02:00,
2013-01-08 11:32:00,58.3,25.4,30.30,East,81,5.0,12.0,28,0.00,,---,0.00,VWS V13.01,2013-01-08 19:32:00,
2013-01-08 12:02:00,59.6,22.8,30.28,ESE,110,7.0,14.0,24,0.00,,---,0.00,VWS V13.01,2013-01-08 20:02:00,
2013-01-08 12:32:00,59.9,25.9,30.27,East,89,5.0,15.0,27,0.00,,---,0.00,VWS V13.01,2013-01-08 20:32:00,
2013-01-08 13:02:00,59.8,25.8,30.27,ESE,107,0.0,12.0,27,0.00,,---,0.00,VWS V13.01,2013-01-08 21:02:00,
2013-01-08 13:32:00,60.5,26.4,30.27,SE,134,4.0,10.0,27,0.00,,---,0.00,VWS V13.01,2013-01-08 21:32:00,
2013-01-08 14:02:00,59.6,25.6,30.28,North,1,0.0,9.0,27,0.00,,---,0.00,VWS V13.01,2013-01-08 22:02:00,
2013-01-08 14:32:00,60.4,27.2,30.28,North,354,0.0,6.0,28,0.00,,---,0.00,VWS V13.01,2013-01-08 22:32:00,
2013-01-08 15:02:00,60.2,28.7,30.28,WSW,252,1.0,5.0,30,0.00,,---,0.00,VWS V13.01,2013-01-08 23:02:00,
2013-01-08 15:32:00,60.4,29.6,30.29,WNW,292,0.0,4.0,31,0.00,,---,0.00,VWS V13.01,2013-01-08 23:32:00,
2013-01-08 16:02:00,56.5,32.5,30.31,WNW,289,0.0,3.0,40,0.00,,---,0.00,VWS V13.01,2013-01-09 00:02:00,
2013-01-08 16:32:00,51.0,32.5,30.31,WNW,289,0.0,0.0,49,0.00,,---,0.00,VWS V13.01,2013-01-09 00:32:00,
2013-01-08 17:02:00,43.3,33.1,30.36,WNW,283,0.0,0.0,67,0.00,,---,0.00,VWS V13.01,2013-01-09 01:02:00,
2013-01-08 17:32:00,39.6,32.0,30.42,WNW,283,0.0,0.0,74,0.00,,---,0.00,VWS V13.01,2013-01-09 01:32:00,
2013-01-08 18:02:00,37.0,30.5,30.44,WNW,282,0.0,0.0,77,0.00,,---,0.00,VWS V13.01,2013-01-09 02:02:00,
2013-01-08 18:32:00,35.9,30.3,30.42,WNW,283,0.0,1.0,80,0.00,,---,0.00,VWS V13.01,2013-01-09 02:32:00,
2013-01-08 19:02:00,34.9,29.7,30.42,WNW,283,0.0,0.0,81,0.00,,---,0.00,VWS V13.01,2013-01-09 03:02:00,
2013-01-08 19:32:00,34.4,29.2,30.38,WNW,283,0.0,0.0,81,0.00,,---,0.00,VWS V13.01,2013-01-09 03:32:00,
2013-01-08 20:02:00,36.2,30.3,30.37,WNW,282,0.0,0.0,79,0.00,,---,0.00,VWS V13.01,2013-01-09 04:02:00,
2013-01-08 20:32:00,44.2,28.2,30.29,South,191,0.0,5.0,53,0.00,,---,0.00,VWS V13.01,2013-01-09 04:32:00,
2013-01-08 21:03:00,47.6,28.4,30.29,East,101,3.0,5.0,47,0.00,,---,0.00,VWS V13.01,2013-01-09 05:03:00,
2013-01-08 21:32:00,48.3,28.0,30.28,ESE,102,0.0,5.0,45,0.00,,---,0.00,VWS V13.01,2013-01-09 05:32:00,
2013-01-08 22:02:00,48.0,28.2,30.28,ESE,105,2.0,5.0,46,0.00,,---,0.00,VWS V13.01,2013-01-09 06:02:00,
2013-01-08 22:32:00,47.4,27.7,30.27,East,94,3.0,6.0,46,0.00,,---,0.00,VWS V13.01,2013-01-09 06:32:00,
2013-01-08 23:02:00,48.0,28.2,30.27,East,80,5.0,7.0,46,0.00,,---,0.00,VWS V13.01,2013-01-09 07:02:00,
2013-01-08 23:32:00,48.6,26.6,30.26,ENE,74,1.0,8.0,42,0.00,,---,0.00,VWS V13.01,2013-01-09 07:32:00,